首页
METAR-TAF:

METAR-TAF

机场 :

Albert J. Ellis Airport

傑克遜維爾, 北卡罗来纳州, 美国

纬度: 34-50N, 经度: 077-37W, 海拔: 29米

当前天气观测

该预报发布于25分钟前的10:56 UTC
静风
温度 7°C
湿度 100%
气压 1016 hPa
能見度: 16.1公里
天空无云

METAR: KOAJ 211056Z 00000KT 10SM CLR 07/07 A3000 RMK AO2 SLP165 T00720072

时间: 07:21 (11:21 UTC)

预报

该预报发布于5小时和54分钟前的05:27 UTC
预报有效从21日的 06点(UTC)到 22日的 06点(UTC)
风速6节,风向西南
能見度: 10公里
散云层高于7000英尺
从 21日的 1800点(UTC)
风速5节,风向西
能見度: 10公里
多云层高于5000英尺
从 22日的 0400点(UTC)
风速4节,风向西北
能見度: 10公里
散云层高于5000英尺

TAF: KOAJ 210527Z 2106/2206 22006KT P6SM SCT070 FM211800 28005KT P6SM BKN050 FM220400 32004KT P6SM SCT050 AMD LTD TO CLD VIS AND WIND

超过4000个机场的气象观测和天气预报(METAR&TAF报告)。

可查询的气象台以黄色和红色小点在地图上表示。

将鼠标移到小点上方,可查看气象台名称。

然后点击查看天气观测和预报。

如需切换地图:点击带黑十字的绿色按钮放大地图;点击带横线的绿色按钮缩小地图;或者点击绿色箭头查看邻近地区的地图。


METAR-TAF: